Terminal Aerodrome Forecast
Issued by NWS Mt. Holly, NJ

Home | Current Version | Previous Version | Text Only | Print | Product List | Glossary On
Versions: 1 2 3 4 5 6 7 8 9 10 11 12 13 14 15 16 17 18 19 20 21 22 23 24
037
FTUS41 KPHI 030601 AAA
TAFACY
TAF AMD
KACY 030601Z 0306/0406 09012KT 6SM BR SCT008 OVC035
      TEMPO 0307/0310 3SM -SHRA BR OVC015
     FM031000 08005KT 4SM -SHRA BR OVC005
     FM031400 05008KT 6SM BR VCSH OVC007
     FM032100 02008KT P6SM OVC010
     FM040100 05005KT 5SM BR OVC005=

USA.gov is the U.S. government's official web portal to all federal, state and local government web resources and services.